Time;durP1;ratioP1;P1;durP2;ratioP2;P2;SDS_P1;SDS_P2;PMS_P1;PMS_P2;Temp;Humidity;BMP_temperature;BMP_pressure;BME280_temperature;BME280_humidity;BME280_pressure;Samples;Min_cycle;Max_cycle;Signal;HPM_P1;HPM_P2
2024/04/11 00:00:08;;;;;;;;;;;9.00;99.90;;;;;;5456669;25;19927;-77
2024/04/11 00:02:33;;;;;;;;;;;8.90;99.90;;;;;;5476937;26;20307;-77
2024/04/11 00:04:59;;;;;;;;;;;8.90;99.90;;;;;;5494994;26;20021;-77
2024/04/11 00:07:25;;;;;;;;;;;8.90;99.90;;;;;;5561205;25;19927;-78
2024/04/11 00:09:50;;;;;;;;;;;8.90;99.90;;;;;;5502247;25;19931;-78
2024/04/11 00:12:16;;;;;;;;;;;8.80;99.90;;;;;;5436706;26;19934;-77
2024/04/11 00:14:43;;;;;;;;;;;8.80;99.90;;;;;;5434802;26;19933;-78
2024/04/11 00:17:08;;;;;;;;;;;8.80;99.90;;;;;;5495942;26;19952;-78
2024/04/11 00:19:35;;;;;;;;;;;8.70;99.90;;;;;;5495643;26;19938;-77
2024/04/11 00:22:01;;;;;;;;;;;8.70;99.90;;;;;;5470867;26;19936;-77
2024/04/11 00:24:26;;;;;;;;;;;8.70;99.90;;;;;;5495354;25;20248;-77
2024/04/11 00:26:52;;;;;;;;;;;8.70;99.90;;;;;;5478809;26;19934;-77
2024/04/11 00:29:18;;;;;;;;;;;8.70;99.90;;;;;;5498099;25;19928;-77
2024/04/11 00:31:43;;;;;;;;;;;8.70;99.90;;;;;;5481238;26;19967;-78
2024/04/11 00:34:23;;;;;;;;;;;8.70;99.90;;;;;;5488919;26;20707;-77
2024/04/11 00:36:50;;;;;;;;;;;8.70;99.90;;;;;;5498603;26;19927;-77
2024/04/11 00:39:19;;;;;;;;;;;8.70;99.90;;;;;;5464499;26;19960;-77
2024/04/11 00:41:47;;;;;;;;;;;8.70;99.90;;;;;;5487876;26;19934;-78
2024/04/11 00:44:16;;;;;;;;;;;8.70;99.90;;;;;;5493055;26;19934;-78
2024/04/11 00:46:43;;;;;;;;;;;8.70;99.90;;;;;;5400410;26;20246;-77
2024/04/11 00:49:09;;;;;;;;;;;8.60;99.90;;;;;;5487197;26;19940;-77
2024/04/11 00:51:35;;;;;;;;;;;8.60;99.90;;;;;;5474659;25;20236;-77
2024/04/11 00:54:00;;;;;;;;;;;8.60;99.90;;;;;;5529045;25;19935;-78
2024/04/11 00:56:26;;;;;;;;;;;8.60;99.90;;;;;;5484391;26;19935;-77
2024/04/11 00:58:51;;;;;;;;;;;8.60;99.90;;;;;;5474859;26;19935;-77
2024/04/11 01:01:17;;;;;;;;;;;8.60;99.90;;;;;;5464032;26;20236;-77
2024/04/11 01:03:44;;;;;;;;;;;8.60;99.90;;;;;;5527377;26;20369;-78
2024/04/11 01:06:10;;;;;;;;;;;8.50;99.90;;;;;;5484229;26;20694;-77
2024/04/11 01:08:36;;;;;;;;;;;8.50;99.90;;;;;;5437523;26;20255;-77
2024/04/11 01:11:02;;;;;;;;;;;8.50;99.90;;;;;;5496756;26;19936;-77
2024/04/11 01:13:29;;;;;;;;;;;8.50;99.90;;;;;;5489824;26;19992;-77
2024/04/11 01:15:57;;;;;;;;;;;8.60;99.90;;;;;;5461651;26;19935;-77
2024/04/11 01:18:25;;;;;;;;;;;8.50;99.90;;;;;;5495276;26;20676;-77
2024/04/11 01:20:50;;;;;;;;;;;8.50;99.90;;;;;;5462257;26;19937;-77
2024/04/11 01:23:16;;;;;;;;;;;8.50;99.90;;;;;;5512020;26;20347;-78
2024/04/11 01:25:43;;;;;;;;;;;8.50;99.90;;;;;;5470891;26;19951;-78
2024/04/11 01:28:09;;;;;;;;;;;8.50;99.90;;;;;;5463159;26;19928;-78
2024/04/11 01:30:35;;;;;;;;;;;8.40;99.90;;;;;;5480108;26;19928;-77
2024/04/11 01:33:00;;;;;;;;;;;8.40;99.90;;;;;;5464045;26;20272;-77
2024/04/11 01:35:27;;;;;;;;;;;8.30;99.90;;;;;;5465089;25;19927;-77
2024/04/11 01:37:53;;;;;;;;;;;8.30;99.90;;;;;;5467917;26;20701;-78
2024/04/11 01:40:19;;;;;;;;;;;8.20;99.90;;;;;;5449297;26;19969;-77
2024/04/11 01:42:44;;;;;;;;;;;8.20;99.90;;;;;;5425985;26;20267;-78
2024/04/11 01:45:11;;;;;;;;;;;8.20;99.90;;;;;;5514799;25;19935;-77
2024/04/11 01:47:38;;;;;;;;;;;8.20;99.90;;;;;;5424023;26;20340;-77
2024/04/11 01:50:04;;;;;;;;;;;8.10;99.90;;;;;;5492788;26;20263;-78
2024/04/11 01:52:30;;;;;;;;;;;8.10;99.90;;;;;;5463313;26;20255;-77
2024/04/11 01:55:00;;;;;;;;;;;8.10;99.90;;;;;;5525438;26;19928;-77
2024/04/11 01:57:26;;;;;;;;;;;8.10;99.90;;;;;;5450319;26;19927;-77
2024/04/11 01:59:53;;;;;;;;;;;8.00;99.90;;;;;;5477147;26;19928;-78
2024/04/11 02:02:19;;;;;;;;;;;8.00;99.90;;;;;;5452293;26;19972;-77
2024/04/11 02:04:45;;;;;;;;;;;8.00;99.90;;;;;;5430321;26;19927;-77
2024/04/11 02:07:10;;;;;;;;;;;8.00;99.90;;;;;;5430995;26;19938;-78
2024/04/11 02:09:36;;;;;;;;;;;8.10;99.90;;;;;;5438672;26;20000;-77
2024/04/11 02:12:02;;;;;;;;;;;8.10;99.90;;;;;;5456886;26;19927;-77
2024/04/11 02:14:28;;;;;;;;;;;8.10;99.90;;;;;;5426989;26;20594;-77
2024/04/11 02:16:55;;;;;;;;;;;8.10;99.90;;;;;;5433904;26;19927;-77
2024/04/11 02:19:21;;;;;;;;;;;8.10;99.90;;;;;;5495899;26;20318;-77
2024/04/11 02:21:48;;;;;;;;;;;8.10;99.90;;;;;;5441059;26;19928;-78
2024/04/11 02:24:16;;;;;;;;;;;8.10;99.90;;;;;;5427896;26;20340;-77
2024/04/11 02:26:48;;;;;;;;;;;8.00;99.90;;;;;;5494235;26;19927;-77
2024/04/11 02:29:14;;;;;;;;;;;8.10;99.90;;;;;;5465153;26;19928;-77
2024/04/11 02:31:41;;;;;;;;;;;8.10;99.90;;;;;;5485669;26;19928;-77
2024/04/11 02:34:06;;;;;;;;;;;8.00;99.90;;;;;;5454267;25;19938;-77
2024/04/11 02:36:32;;;;;;;;;;;8.00;99.90;;;;;;5513088;25;20654;-77
2024/04/11 02:38:59;;;;;;;;;;;8.00;99.90;;;;;;5454560;26;19927;-77
2024/04/11 02:41:27;;;;;;;;;;;8.00;99.90;;;;;;5526273;26;19928;-76
2024/04/11 02:43:53;;;;;;;;;;;8.00;99.90;;;;;;5520709;25;19931;-77
2024/04/11 02:46:19;;;;;;;;;;;7.90;99.90;;;;;;5446511;26;19928;-76
2024/04/11 02:48:45;;;;;;;;;;;8.00;99.90;;;;;;5437135;25;19937;-77
2024/04/11 02:51:11;;;;;;;;;;;7.90;99.90;;;;;;5479337;26;19927;-77
2024/04/11 02:53:38;;;;;;;;;;;7.90;99.90;;;;;;5456493;25;19926;-77
2024/04/11 02:56:07;;;;;;;;;;;7.90;99.90;;;;;;5477430;26;19928;-77
2024/04/11 02:58:33;;;;;;;;;;;7.90;99.90;;;;;;5456950;26;19928;-77
2024/04/11 03:01:00;;;;;;;;;;;7.90;99.90;;;;;;5496147;25;19934;-77
2024/04/11 03:03:25;;;;;;;;;;;7.90;99.90;;;;;;5455956;26;19928;-77
2024/04/11 03:05:51;;;;;;;;;;;7.90;99.90;;;;;;5529873;25;19937;-77
2024/04/11 03:08:17;;;;;;;;;;;7.90;99.90;;;;;;5475643;25;19937;-77
2024/04/11 03:10:42;;;;;;;;;;;7.90;99.90;;;;;;5484227;26;19928;-76
2024/04/11 03:13:08;;;;;;;;;;;7.90;99.90;;;;;;5455358;26;19992;-77
2024/04/11 03:15:34;;;;;;;;;;;7.90;99.90;;;;;;5468699;25;19927;-77
2024/04/11 03:18:00;;;;;;;;;;;7.80;99.90;;;;;;5502337;25;19927;-77
2024/04/11 03:20:25;;;;;;;;;;;7.80;99.90;;;;;;5565501;25;19934;-77
2024/04/11 03:22:51;;;;;;;;;;;7.90;99.90;;;;;;5441898;26;20244;-77
2024/04/11 03:25:17;;;;;;;;;;;7.90;99.90;;;;;;5452226;26;20467;-77
2024/04/11 03:27:42;;;;;;;;;;;7.90;99.90;;;;;;5495410;26;19927;-77
2024/04/11 03:30:08;;;;;;;;;;;7.90;99.90;;;;;;5526260;26;19928;-77
2024/04/11 03:32:34;;;;;;;;;;;7.90;99.90;;;;;;5480101;26;19930;-77
2024/04/11 03:34:59;;;;;;;;;;;7.80;99.90;;;;;;5434102;26;19928;-77
2024/04/11 03:37:26;;;;;;;;;;;7.90;99.90;;;;;;5466232;26;20656;-77
2024/04/11 03:39:52;;;;;;;;;;;7.80;99.90;;;;;;5495767;26;19935;-77
2024/04/11 03:42:18;;;;;;;;;;;7.80;99.90;;;;;;5479411;25;20002;-76
2024/04/11 03:44:48;;;;;;;;;;;7.80;99.90;;;;;;5532598;25;19927;-77
2024/04/11 03:47:13;;;;;;;;;;;7.80;99.90;;;;;;5485181;25;19935;-77
2024/04/11 03:49:39;;;;;;;;;;;7.90;99.90;;;;;;5437051;26;20010;-77
2024/04/11 03:52:05;;;;;;;;;;;7.90;99.90;;;;;;5429821;26;19928;-77
2024/04/11 03:54:31;;;;;;;;;;;7.90;99.90;;;;;;5492598;26;19963;-77
2024/04/11 03:56:57;;;;;;;;;;;7.90;99.90;;;;;;5399545;26;19993;-77
2024/04/11 03:59:22;;;;;;;;;;;7.90;99.90;;;;;;5462701;26;19992;-77
2024/04/11 04:01:48;;;;;;;;;;;7.90;99.90;;;;;;5440267;26;19928;-77
2024/04/11 04:04:17;;;;;;;;;;;7.90;99.90;;;;;;5496614;26;20356;-76
2024/04/11 04:06:43;;;;;;;;;;;7.90;99.90;;;;;;5466106;26;19939;-77
2024/04/11 04:09:08;;;;;;;;;;;7.90;99.90;;;;;;5427766;26;19939;-77
2024/04/11 04:11:36;;;;;;;;;;;7.90;99.90;;;;;;5447236;26;20618;-77
2024/04/11 04:14:03;;;;;;;;;;;7.90;99.90;;;;;;5485026;25;19927;-77
2024/04/11 04:16:28;;;;;;;;;;;7.90;99.90;;;;;;5481530;25;20286;-77
2024/04/11 04:18:54;;;;;;;;;;;7.90;99.90;;;;;;5473010;26;19940;-77
2024/04/11 04:21:20;;;;;;;;;;;7.90;99.90;;;;;;5493780;25;20243;-75
2024/04/11 04:23:54;;;;;;;;;;;7.90;99.90;;;;;;5448836;26;20232;-78
2024/04/11 04:26:21;;;;;;;;;;;7.90;99.90;;;;;;5457164;26;19935;-77
2024/04/11 04:28:48;;;;;;;;;;;7.90;99.90;;;;;;5521281;25;19938;-77
2024/04/11 04:31:14;;;;;;;;;;;7.90;99.90;;;;;;5532661;25;19990;-77
2024/04/11 04:33:47;;;;;;;;;;;7.90;99.90;;;;;;5522044;26;20336;-77
2024/04/11 04:36:16;;;;;;;;;;;7.90;99.90;;;;;;5467459;26;20376;-77
2024/04/11 04:38:44;;;;;;;;;;;7.80;99.90;;;;;;5467004;26;19939;-77
2024/04/11 04:41:10;;;;;;;;;;;7.80;99.90;;;;;;5454566;25;19932;-77
2024/04/11 04:43:37;;;;;;;;;;;7.90;99.90;;;;;;5533632;25;19935;-77
2024/04/11 04:46:02;;;;;;;;;;;7.90;99.90;;;;;;5500320;26;20370;-77
2024/04/11 04:48:29;;;;;;;;;;;7.90;99.90;;;;;;5496353;26;19992;-77
2024/04/11 04:50:55;;;;;;;;;;;7.90;99.90;;;;;;5496190;26;20358;-77
2024/04/11 04:53:21;;;;;;;;;;;7.90;99.90;;;;;;5530033;25;19927;-76
2024/04/11 04:55:47;;;;;;;;;;;7.90;99.90;;;;;;5467255;25;19964;-76
2024/04/11 04:58:12;;;;;;;;;;;7.90;99.90;;;;;;5475417;25;19927;-77
2024/04/11 05:00:38;;;;;;;;;;;7.90;99.90;;;;;;5485395;26;19927;-77
2024/04/11 05:03:08;;;;;;;;;;;7.90;99.90;;;;;;5494172;26;19936;-77
2024/04/11 05:05:35;;;;;;;;;;;7.90;99.90;;;;;;5521336;25;19927;-77
2024/04/11 05:08:07;;;;;;;;;;;8.00;99.90;;;;;;5503254;26;19939;-78
2024/04/11 05:10:37;;;;;;;;;;;8.00;99.90;;;;;;5491682;26;19928;-77
2024/04/11 05:13:09;;;;;;;;;;;8.00;99.90;;;;;;5427889;26;19938;-77
2024/04/11 05:15:38;;;;;;;;;;;8.00;99.90;;;;;;5463331;26;19942;-77
2024/04/11 05:18:04;;;;;;;;;;;8.00;99.90;;;;;;5496855;26;19938;-75
2024/04/11 05:20:32;;;;;;;;;;;8.00;99.90;;;;;;5496101;26;19988;-77
2024/04/11 05:22:59;;;;;;;;;;;8.10;99.90;;;;;;5527601;25;19992;-77
2024/04/11 05:25:30;;;;;;;;;;;8.10;99.90;;;;;;5426771;26;19935;-77
2024/04/11 05:27:56;;;;;;;;;;;8.10;99.90;;;;;;5419828;26;19927;-77
2024/04/11 05:30:21;;;;;;;;;;;8.10;99.90;;;;;;5440995;26;19936;-77
2024/04/11 05:32:47;;;;;;;;;;;8.10;99.90;;;;;;5496129;25;19928;-76
2024/04/11 05:35:13;;;;;;;;;;;8.20;99.90;;;;;;5438363;25;20355;-77
2024/04/11 05:37:44;;;;;;;;;;;8.20;99.90;;;;;;5479654;26;19935;-77
2024/04/11 05:40:12;;;;;;;;;;;8.20;99.90;;;;;;5460846;26;20375;-77
2024/04/11 05:42:44;;;;;;;;;;;8.30;99.90;;;;;;5463619;26;19927;-77
2024/04/11 05:45:17;;;;;;;;;;;8.30;99.90;;;;;;5517007;26;19956;-77
2024/04/11 05:47:43;;;;;;;;;;;8.40;99.90;;;;;;5508095;25;19934;-77
2024/04/11 05:50:10;;;;;;;;;;;8.40;99.90;;;;;;5471184;26;19957;-77
2024/04/11 05:52:36;;;;;;;;;;;8.50;99.90;;;;;;5492323;26;19951;-77
2024/04/11 05:55:02;;;;;;;;;;;8.50;99.90;;;;;;5468903;26;19935;-76
2024/04/11 05:57:28;;;;;;;;;;;8.60;99.90;;;;;;5465328;26;19927;-77
2024/04/11 05:59:55;;;;;;;;;;;8.60;99.90;;;;;;5496429;26;19927;-77
2024/04/11 06:02:21;;;;;;;;;;;8.70;99.90;;;;;;5494557;26;19927;-77
2024/04/11 06:04:47;;;;;;;;;;;8.80;99.90;;;;;;5465923;26;20338;-78
2024/04/11 06:07:14;;;;;;;;;;;8.80;99.90;;;;;;5496067;26;19927;-77
2024/04/11 06:09:41;;;;;;;;;;;8.80;99.90;;;;;;5531620;25;20311;-78
2024/04/11 06:12:08;;;;;;;;;;;8.90;99.90;;;;;;5495347;26;19928;-77
2024/04/11 06:14:34;;;;;;;;;;;9.00;99.90;;;;;;5502500;26;19934;-77
2024/04/11 06:17:00;;;;;;;;;;;9.10;99.90;;;;;;5469820;26;19929;-76
2024/04/11 06:19:25;;;;;;;;;;;9.20;99.90;;;;;;5434659;26;19927;-77
2024/04/11 06:21:54;;;;;;;;;;;9.20;99.90;;;;;;5494465;26;19928;-78
2024/04/11 06:24:20;;;;;;;;;;;9.40;99.90;;;;;;5473597;26;19927;-77
2024/04/11 06:26:46;;;;;;;;;;;9.40;99.90;;;;;;5494307;26;19944;-77
2024/04/11 06:29:14;;;;;;;;;;;9.70;99.90;;;;;;5484620;26;19999;-77
2024/04/11 06:31:40;;;;;;;;;;;9.90;99.90;;;;;;5495450;26;19928;-77
2024/04/11 06:34:05;;;;;;;;;;;10.00;99.90;;;;;;5467985;26;19935;-77
2024/04/11 06:36:33;;;;;;;;;;;10.10;99.90;;;;;;5474546;26;20017;-77
2024/04/11 06:38:59;;;;;;;;;;;10.20;99.90;;;;;;5428425;26;19935;-77
2024/04/11 06:41:27;;;;;;;;;;;10.30;99.90;;;;;;5465037;25;20321;-77
2024/04/11 06:43:53;;;;;;;;;;;10.30;99.90;;;;;;5492430;26;19935;-77
2024/04/11 06:46:19;;;;;;;;;;;10.50;99.90;;;;;;5496300;26;19937;-77
2024/04/11 06:48:46;;;;;;;;;;;10.50;99.90;;;;;;5442219;26;20441;-78
2024/04/11 06:51:19;;;;;;;;;;;10.70;99.90;;;;;;5429960;26;20332;-77
2024/04/11 06:53:46;;;;;;;;;;;10.80;99.90;;;;;;5470114;26;19928;-77
2024/04/11 06:56:17;;;;;;;;;;;10.90;99.90;;;;;;5505311;26;20336;-77
2024/04/11 06:58:45;;;;;;;;;;;10.90;99.90;;;;;;5468056;26;20332;-77
2024/04/11 07:01:15;;;;;;;;;;;11.00;99.90;;;;;;5465596;26;20259;-77
2024/04/11 07:03:49;;;;;;;;;;;11.00;99.90;;;;;;5487832;26;19927;-77
2024/04/11 07:08:46;;;;;;;;;;;11.20;99.90;;;;;;5486717;26;20395;-77
2024/04/11 07:11:40;;;;;;;;;;;11.30;99.90;;;;;;5458455;26;19927;-77
2024/04/11 07:14:01;;;;;;;;;;;11.40;99.90;;;;;;5462844;26;19934;-77
2024/04/11 07:16:29;;;;;;;;;;;11.50;99.90;;;;;;5457474;26;19972;-78
2024/04/11 07:18:55;;;;;;;;;;;11.50;99.90;;;;;;5458588;26;19928;-77
2024/04/11 07:21:34;;;;;;;;;;;11.60;99.90;;;;;;5482588;26;19934;-78
2024/04/11 07:24:00;;;;;;;;;;;11.60;99.90;;;;;;5418501;26;19935;-77
2024/04/11 07:26:29;;;;;;;;;;;11.70;99.90;;;;;;5443126;26;19927;-78
2024/04/11 07:28:55;;;;;;;;;;;11.80;99.90;;;;;;5428399;26;19928;-77
2024/04/11 07:31:21;;;;;;;;;;;11.80;99.90;;;;;;5427295;26;19935;-78
2024/04/11 07:33:48;;;;;;;;;;;11.80;99.90;;;;;;5458203;26;20707;-77
2024/04/11 07:36:16;;;;;;;;;;;11.90;99.90;;;;;;5486602;26;19928;-77
2024/04/11 07:38:42;;;;;;;;;;;11.90;99.90;;;;;;5427125;26;20352;-77
2024/04/11 07:41:17;;;;;;;;;;;12.00;99.90;;;;;;5456608;26;19961;-77
2024/04/11 07:43:52;;;;;;;;;;;12.00;99.90;;;;;;5489583;26;19996;-77
2024/04/11 07:46:18;;;;;;;;;;;12.00;99.90;;;;;;5481839;26;19928;-78
2024/04/11 07:48:51;;;;;;;;;;;12.00;99.90;;;;;;5465854;26;19929;-77
2024/04/11 07:51:17;;;;;;;;;;;12.10;99.90;;;;;;5480747;26;19928;-78
2024/04/11 07:53:49;;;;;;;;;;;12.10;99.90;;;;;;5460369;26;19936;-77
2024/04/11 07:56:21;;;;;;;;;;;12.10;99.90;;;;;;5491477;26;19928;-77
2024/04/11 07:58:48;;;;;;;;;;;12.20;99.90;;;;;;5465097;26;20337;-78
2024/04/11 08:01:14;;;;;;;;;;;12.20;99.90;;;;;;5444952;26;20279;-77
2024/04/11 08:03:40;;;;;;;;;;;12.20;99.90;;;;;;5499620;26;20239;-78
2024/04/11 08:06:10;;;;;;;;;;;12.20;99.90;;;;;;5467840;26;19973;-77
2024/04/11 08:08:37;;;;;;;;;;;12.20;99.90;;;;;;5458538;26;19935;-78
2024/04/11 08:11:03;;;;;;;;;;;12.20;99.90;;;;;;5491878;26;19936;-77
2024/04/11 08:13:29;;;;;;;;;;;12.20;99.90;;;;;;5488062;26;19928;-77
2024/04/11 08:15:56;;;;;;;;;;;12.30;99.90;;;;;;5456383;26;19954;-76
2024/04/11 08:18:22;;;;;;;;;;;12.30;99.90;;;;;;5505643;26;19928;-77
2024/04/11 08:20:48;;;;;;;;;;;12.30;99.90;;;;;;5457207;26;19934;-77
2024/04/11 08:23:20;;;;;;;;;;;12.30;99.90;;;;;;5494049;26;20248;-77
2024/04/11 08:25:49;;;;;;;;;;;12.30;99.90;;;;;;5430403;26;19935;-77
2024/04/11 08:28:15;;;;;;;;;;;12.30;99.70;;;;;;5502165;26;20438;-78
2024/04/11 08:30:40;;;;;;;;;;;12.40;99.90;;;;;;5493320;26;19955;-78
2024/04/11 08:33:09;;;;;;;;;;;12.40;99.90;;;;;;5424730;26;19936;-78
2024/04/11 08:35:36;;;;;;;;;;;12.40;99.90;;;;;;5490498;26;19928;-78
2024/04/11 08:38:05;;;;;;;;;;;12.40;99.90;;;;;;5489637;26;19948;-78
2024/04/11 08:40:33;;;;;;;;;;;12.50;99.90;;;;;;5489495;26;19936;-77
2024/04/11 08:43:00;;;;;;;;;;;12.50;99.90;;;;;;5460197;26;20454;-77
2024/04/11 08:45:26;;;;;;;;;;;12.50;99.90;;;;;;5459748;26;19965;-77
2024/04/11 08:47:52;;;;;;;;;;;12.50;99.90;;;;;;5472725;26;19927;-78
2024/04/11 08:50:18;;;;;;;;;;;12.50;99.90;;;;;;5475114;26;19928;-78
2024/04/11 08:52:44;;;;;;;;;;;12.60;99.90;;;;;;5460652;26;19928;-77
2024/04/11 08:55:11;;;;;;;;;;;12.60;99.90;;;;;;5448181;26;19928;-77
2024/04/11 08:57:37;;;;;;;;;;;12.60;99.90;;;;;;5483937;26;19928;-77
2024/04/11 09:00:12;;;;;;;;;;;12.60;99.90;;;;;;5499928;26;19956;-77
2024/04/11 09:02:45;;;;;;;;;;;12.60;99.90;;;;;;5497753;26;19928;-76
2024/04/11 09:05:14;;;;;;;;;;;12.60;99.90;;;;;;5460757;26;19928;-77
2024/04/11 09:07:40;;;;;;;;;;;12.60;99.90;;;;;;5490778;26;19938;-77
2024/04/11 09:10:07;;;;;;;;;;;12.60;99.90;;;;;;5460482;26;19928;-77
2024/04/11 09:12:32;;;;;;;;;;;12.60;99.90;;;;;;5424874;26;19929;-77
2024/04/11 09:14:58;;;;;;;;;;;12.60;99.90;;;;;;5486028;26;19928;-77
2024/04/11 09:17:24;;;;;;;;;;;12.70;99.90;;;;;;5515854;26;19928;-77
2024/04/11 09:19:59;;;;;;;;;;;12.70;99.90;;;;;;5468901;26;20339;-77
2024/04/11 09:22:25;;;;;;;;;;;12.70;99.90;;;;;;5473496;26;19928;-77
2024/04/11 09:24:51;;;;;;;;;;;12.70;99.90;;;;;;5490884;26;20255;-78
2024/04/11 09:27:17;;;;;;;;;;;12.70;99.90;;;;;;5490782;26;20407;-77
2024/04/11 09:29:48;;;;;;;;;;;12.70;99.90;;;;;;5458271;26;20310;-76
2024/04/11 09:32:16;;;;;;;;;;;12.70;99.90;;;;;;5463590;26;19927;-76
2024/04/11 09:34:42;;;;;;;;;;;12.70;99.90;;;;;;5498893;26;19928;-78
2024/04/11 09:37:15;;;;;;;;;;;12.70;99.90;;;;;;5462436;26;19928;-76
2024/04/11 09:39:49;;;;;;;;;;;12.80;99.90;;;;;;5433122;26;19940;-78
2024/04/11 09:42:18;;;;;;;;;;;12.80;99.90;;;;;;5459439;26;20344;-77
2024/04/11 09:44:46;;;;;;;;;;;12.80;99.90;;;;;;5460998;26;19936;-77
2024/04/11 09:47:14;;;;;;;;;;;12.90;99.90;;;;;;5479909;26;20463;-77
2024/04/11 09:49:40;;;;;;;;;;;12.80;99.90;;;;;;5466162;26;19992;-78
2024/04/11 09:52:07;;;;;;;;;;;12.80;99.90;;;;;;5502694;26;19928;-77
2024/04/11 09:54:38;;;;;;;;;;;12.90;99.90;;;;;;5496688;26;19934;-77
2024/04/11 09:57:12;;;;;;;;;;;12.90;99.90;;;;;;5437357;26;19927;-76
2024/04/11 09:59:38;;;;;;;;;;;12.90;99.90;;;;;;5454467;26;19935;-78
2024/04/11 10:02:03;;;;;;;;;;;13.00;99.90;;;;;;5442894;26;20404;-76
2024/04/11 10:04:42;;;;;;;;;;;13.00;99.90;;;;;;5467496;25;19928;-77
2024/04/11 10:07:08;;;;;;;;;;;13.00;99.90;;;;;;5470834;26;19928;-76
2024/04/11 10:09:34;;;;;;;;;;;13.00;99.90;;;;;;5495364;26;19952;-77
2024/04/11 10:12:04;;;;;;;;;;;13.10;99.90;;;;;;5492486;26;19935;-76
2024/04/11 10:14:32;;;;;;;;;;;13.10;99.90;;;;;;5429511;26;19935;-76
2024/04/11 10:17:01;;;;;;;;;;;13.10;99.90;;;;;;5497519;25;19939;-76
2024/04/11 10:19:29;;;;;;;;;;;13.20;99.90;;;;;;5469639;26;19934;-76
2024/04/11 10:22:01;;;;;;;;;;;13.20;99.90;;;;;;5485196;26;20272;-76
2024/04/11 10:24:28;;;;;;;;;;;13.20;99.90;;;;;;5425941;26;19939;-76
2024/04/11 10:26:55;;;;;;;;;;;13.20;99.90;;;;;;5508925;26;20557;-76
2024/04/11 10:29:20;;;;;;;;;;;13.20;99.90;;;;;;5433628;26;19927;-76
2024/04/11 10:31:56;;;;;;;;;;;13.30;99.90;;;;;;5461533;26;19931;-76
2024/04/11 10:34:34;;;;;;;;;;;13.30;99.90;;;;;;5503939;25;19959;-76
2024/04/11 10:37:12;;;;;;;;;;;13.30;99.90;;;;;;5511319;25;19928;-77
2024/04/11 10:39:38;;;;;;;;;;;13.30;99.90;;;;;;5495465;26;19927;-77
2024/04/11 10:42:14;;;;;;;;;;;13.30;99.90;;;;;;5464815;26;19928;-76
2024/04/11 10:44:39;;;;;;;;;;;13.40;99.90;;;;;;5476278;25;19977;-76
2024/04/11 10:47:08;;;;;;;;;;;13.40;99.90;;;;;;5459602;26;19936;-76
2024/04/11 10:49:34;;;;;;;;;;;13.40;99.90;;;;;;5493495;26;19942;-77
2024/04/11 10:51:59;;;;;;;;;;;13.50;99.90;;;;;;5456226;26;20340;-76
2024/04/11 10:54:30;;;;;;;;;;;13.50;99.90;;;;;;5481386;25;19934;-77
2024/04/11 10:56:55;;;;;;;;;;;13.50;99.90;;;;;;5487145;26;19934;-76
2024/04/11 10:59:26;;;;;;;;;;;13.60;99.90;;;;;;5481278;26;19927;-76
2024/04/11 11:02:00;;;;;;;;;;;13.70;99.90;;;;;;5426872;26;19960;-77
2024/04/11 11:04:26;;;;;;;;;;;13.70;99.90;;;;;;5511321;25;19926;-76
2024/04/11 11:06:54;;;;;;;;;;;13.80;99.90;;;;;;5471924;26;20545;-76
2024/04/11 11:09:21;;;;;;;;;;;13.80;99.90;;;;;;5430154;26;19928;-76
2024/04/11 11:11:47;;;;;;;;;;;13.90;99.90;;;;;;5497582;25;19927;-77
2024/04/11 11:14:20;;;;;;;;;;;13.90;99.90;;;;;;5486862;26;19938;-77
2024/04/11 11:16:50;;;;;;;;;;;13.90;99.90;;;;;;5455868;26;19927;-76
2024/04/11 11:19:19;;;;;;;;;;;14.10;99.90;;;;;;5434115;25;19927;-77
2024/04/11 11:21:45;;;;;;;;;;;14.10;99.90;;;;;;5488387;26;19936;-75
2024/04/11 11:24:14;;;;;;;;;;;14.10;99.90;;;;;;5424796;26;19927;-76
2024/04/11 11:26:46;;;;;;;;;;;14.10;99.90;;;;;;5498249;26;19934;-76
2024/04/11 11:29:19;;;;;;;;;;;14.10;99.90;;;;;;5497623;25;19928;-76
2024/04/11 11:31:51;;;;;;;;;;;14.10;99.90;;;;;;5439651;26;19927;-77
2024/04/11 11:34:27;;;;;;;;;;;14.10;99.90;;;;;;5501875;26;19960;-77
2024/04/11 11:36:57;;;;;;;;;;;14.10;99.90;;;;;;5454595;25;19928;-76
2024/04/11 11:39:26;;;;;;;;;;;14.10;99.90;;;;;;5466184;26;19927;-76
2024/04/11 11:47:34;;;;;;;;;;;14.10;99.90;;;;;;5498764;25;20005;-77
2024/04/11 11:53:25;;;;;;;;;;;14.10;99.90;;;;;;5504695;26;20286;-77
2024/04/11 11:55:57;;;;;;;;;;;14.20;99.90;;;;;;5463637;26;19927;-77
2024/04/11 11:58:25;;;;;;;;;;;14.20;99.90;;;;;;5496462;26;19927;-77
2024/04/11 12:00:59;;;;;;;;;;;14.20;99.90;;;;;;5464693;26;20433;-78
2024/04/11 12:03:30;;;;;;;;;;;14.20;99.90;;;;;;5494101;26;19968;-77
2024/04/11 12:06:05;;;;;;;;;;;14.20;99.90;;;;;;5492092;25;20244;-77
2024/04/11 12:08:37;;;;;;;;;;;14.20;99.90;;;;;;5465859;26;19935;-77
2024/04/11 12:11:15;;;;;;;;;;;14.20;99.90;;;;;;5463850;26;19927;-77
2024/04/11 12:13:51;;;;;;;;;;;14.20;99.90;;;;;;5497739;26;20352;-77
2024/04/11 12:16:19;;;;;;;;;;;14.30;99.90;;;;;;5436307;26;19931;-77
2024/04/11 12:18:48;;;;;;;;;;;14.30;99.90;;;;;;5462537;26;19928;-76
2024/04/11 12:21:18;;;;;;;;;;;14.30;99.90;;;;;;5434145;26;19935;-77
2024/04/11 12:23:44;;;;;;;;;;;14.30;99.90;;;;;;5476556;26;19938;-77
2024/04/11 12:26:12;;;;;;;;;;;14.30;99.90;;;;;;5476385;25;20359;-76
2024/04/11 12:28:45;;;;;;;;;;;14.40;99.90;;;;;;5434438;26;20343;-76
2024/04/11 12:31:15;;;;;;;;;;;14.40;99.90;;;;;;5494987;26;19928;-76
2024/04/11 12:33:45;;;;;;;;;;;14.50;99.90;;;;;;5433914;26;19939;-77
2024/04/11 12:39:12;;;;;;;;;;;14.50;99.90;;;;;;5470096;26;19943;-76
2024/04/11 12:41:41;;;;;;;;;;;14.50;99.90;;;;;;5438405;26;19935;-76
2024/04/11 12:44:11;;;;;;;;;;;14.60;99.90;;;;;;5451130;26;19927;-76
2024/04/11 12:46:52;;;;;;;;;;;14.60;99.90;;;;;;5465619;26;19927;-76
2024/04/11 12:49:25;;;;;;;;;;;14.60;99.90;;;;;;5437250;26;20354;-77
2024/04/11 12:51:55;;;;;;;;;;;14.70;99.90;;;;;;5506486;25;19932;-76
2024/04/11 12:54:26;;;;;;;;;;;14.60;99.90;;;;;;5481014;26;19928;-77
2024/04/11 12:56:56;;;;;;;;;;;14.70;99.90;;;;;;5486462;25;19975;-78
2024/04/11 12:59:30;;;;;;;;;;;14.70;99.90;;;;;;5461975;26;19932;-77
2024/04/11 13:01:56;;;;;;;;;;;14.70;99.90;;;;;;5434485;26;19928;-78
2024/04/11 13:04:33;;;;;;;;;;;14.80;99.90;;;;;;5464830;26;19941;-77
2024/04/11 13:07:10;;;;;;;;;;;14.80;99.90;;;;;;5467064;26;20056;-76
2024/04/11 13:09:48;;;;;;;;;;;14.90;99.90;;;;;;5497658;25;19987;-77
2024/04/11 13:12:17;;;;;;;;;;;14.80;99.90;;;;;;5496515;26;19935;-77
2024/04/11 13:15:07;;;;;;;;;;;14.80;99.90;;;;;;5434034;26;20367;-77
2024/04/11 13:17:34;;;;;;;;;;;14.80;99.90;;;;;;5502702;25;19935;-77
2024/04/11 13:20:11;;;;;;;;;;;14.80;99.90;;;;;;5485261;25;20259;-77
2024/04/11 13:22:41;;;;;;;;;;;14.80;99.90;;;;;;5500915;25;19938;-77
2024/04/11 13:25:17;;;;;;;;;;;14.90;99.90;;;;;;5463882;25;19971;-78
2024/04/11 13:27:52;;;;;;;;;;;14.90;99.90;;;;;;5459113;26;19935;-77
2024/04/11 13:30:18;;;;;;;;;;;14.90;99.90;;;;;;5463981;26;19996;-78
2024/04/11 13:32:59;;;;;;;;;;;14.90;99.90;;;;;;5424280;26;20381;-77
2024/04/11 13:35:37;;;;;;;;;;;14.80;99.90;;;;;;5467241;26;20010;-77
2024/04/11 13:38:17;;;;;;;;;;;14.90;99.90;;;;;;5437610;26;19939;-79
2024/04/11 13:43:31;;;;;;;;;;;14.90;99.90;;;;;;5442216;26;19984;-77
2024/04/11 13:46:06;;;;;;;;;;;14.90;99.90;;;;;;5490625;26;20351;-77
2024/04/11 13:48:50;;;;;;;;;;;15.00;99.90;;;;;;5461730;26;19935;-77
2024/04/11 13:51:29;;;;;;;;;;;15.10;99.90;;;;;;5428965;26;20358;-78
2024/04/11 13:54:02;;;;;;;;;;;15.10;99.90;;;;;;5470566;26;19934;-77
2024/04/11 13:56:29;;;;;;;;;;;15.20;99.90;;;;;;5486646;26;20043;-79
2024/04/11 13:58:58;;;;;;;;;;;15.20;99.90;;;;;;5462240;26;19938;-77
2024/04/11 14:01:27;;;;;;;;;;;15.30;99.90;;;;;;5426530;26;19928;-78
2024/04/11 14:03:54;;;;;;;;;;;15.40;99.90;;;;;;5464118;26;19927;-77
2024/04/11 14:08:47;;;;;;;;;;;15.30;99.90;;;;;;5486652;26;19935;-77
2024/04/11 14:11:16;;;;;;;;;;;15.30;99.90;;;;;;5489579;26;19934;-76
2024/04/11 14:13:42;;;;;;;;;;;15.40;99.90;;;;;;5487207;26;19960;-76
2024/04/11 14:16:11;;;;;;;;;;;15.40;99.90;;;;;;5455317;26;20318;-77
2024/04/11 14:18:37;;;;;;;;;;;15.40;99.90;;;;;;5433720;26;20346;-76
2024/04/11 14:21:18;;;;;;;;;;;15.40;99.90;;;;;;5492512;26;19935;-77
2024/04/11 14:23:52;;;;;;;;;;;15.40;99.90;;;;;;5471957;26;19935;-77
2024/04/11 14:26:35;;;;;;;;;;;15.70;99.90;;;;;;5456790;26;20652;-78
2024/04/11 14:29:07;;;;;;;;;;;16.00;99.90;;;;;;5465221;26;19928;-76
2024/04/11 14:31:36;;;;;;;;;;;16.20;99.90;;;;;;5456471;26;19940;-78
2024/04/11 14:36:27;;;;;;;;;;;16.60;99.90;;;;;;5508250;26;20254;-76
2024/04/11 14:39:05;;;;;;;;;;;16.60;99.90;;;;;;5456151;26;19928;-78
2024/04/11 14:41:30;;;;;;;;;;;16.50;99.90;;;;;;5478395;26;19952;-76
2024/04/11 14:43:59;;;;;;;;;;;16.50;99.90;;;;;;5423866;26;20289;-78
2024/04/11 14:46:25;;;;;;;;;;;16.70;99.90;;;;;;5458313;26;19939;-78
2024/04/11 14:48:56;;;;;;;;;;;16.80;99.90;;;;;;5444981;26;19928;-77
2024/04/11 14:51:26;;;;;;;;;;;16.80;99.90;;;;;;5429547;26;19960;-77